sensor_id;sensor_type;location;lat;lon;timestamp;P1;durP1;ratioP1;P2;durP2;ratioP2
54835;SDS011;43486;43.574;1.476;2023-07-31T00:00:56;5.40;;;2.95;;
54835;SDS011;43486;43.574;1.476;2023-07-31T00:03:22;5.63;;;2.80;;
54835;SDS011;43486;43.574;1.476;2023-07-31T00:05:47;4.47;;;2.35;;
54835;SDS011;43486;43.574;1.476;2023-07-31T00:08:13;5.15;;;2.50;;
54835;SDS011;43486;43.574;1.476;2023-07-31T00:10:38;4.88;;;2.90;;
54835;SDS011;43486;43.574;1.476;2023-07-31T00:13:04;4.47;;;2.40;;
54835;SDS011;43486;43.574;1.476;2023-07-31T00:15:29;6.55;;;2.65;;
54835;SDS011;43486;43.574;1.476;2023-07-31T00:17:54;9.63;;;3.28;;
54835;SDS011;43486;43.574;1.476;2023-07-31T00:20:20;8.50;;;3.03;;
54835;SDS011;43486;43.574;1.476;2023-07-31T00:22:46;7.13;;;3.60;;
54835;SDS011;43486;43.574;1.476;2023-07-31T00:25:11;5.55;;;2.72;;
54835;SDS011;43486;43.574;1.476;2023-07-31T00:27:36;5.68;;;2.72;;
54835;SDS011;43486;43.574;1.476;2023-07-31T00:30:02;4.47;;;2.72;;
54835;SDS011;43486;43.574;1.476;2023-07-31T00:32:27;4.97;;;3.13;;
54835;SDS011;43486;43.574;1.476;2023-07-31T00:34:53;7.35;;;3.28;;
54835;SDS011;43486;43.574;1.476;2023-07-31T00:37:18;4.68;;;2.33;;
54835;SDS011;43486;43.574;1.476;2023-07-31T00:39:44;4.97;;;2.40;;
54835;SDS011;43486;43.574;1.476;2023-07-31T00:42:09;5.72;;;3.00;;
54835;SDS011;43486;43.574;1.476;2023-07-31T00:44:35;5.75;;;3.03;;
54835;SDS011;43486;43.574;1.476;2023-07-31T00:47:00;5.88;;;2.90;;
54835;SDS011;43486;43.574;1.476;2023-07-31T00:49:26;9.15;;;3.08;;
54835;SDS011;43486;43.574;1.476;2023-07-31T00:51:52;6.65;;;3.25;;
54835;SDS011;43486;43.574;1.476;2023-07-31T00:54:17;5.35;;;2.65;;
54835;SDS011;43486;43.574;1.476;2023-07-31T00:56:44;6.05;;;2.65;;
54835;SDS011;43486;43.574;1.476;2023-07-31T00:59:10;5.55;;;2.60;;
54835;SDS011;43486;43.574;1.476;2023-07-31T01:01:36;5.53;;;2.28;;
54835;SDS011;43486;43.574;1.476;2023-07-31T01:04:01;6.70;;;3.35;;
54835;SDS011;43486;43.574;1.476;2023-07-31T01:09:02;7.82;;;3.10;;
54835;SDS011;43486;43.574;1.476;2023-07-31T01:11:48;6.75;;;3.33;;
54835;SDS011;43486;43.574;1.476;2023-07-31T01:14:18;6.93;;;3.47;;
54835;SDS011;43486;43.574;1.476;2023-07-31T01:16:43;4.82;;;2.40;;
54835;SDS011;43486;43.574;1.476;2023-07-31T01:19:08;12.13;;;3.55;;
54835;SDS011;43486;43.574;1.476;2023-07-31T01:27:04;6.22;;;3.72;;
54835;SDS011;43486;43.574;1.476;2023-07-31T01:32:20;4.78;;;2.55;;
54835;SDS011;43486;43.574;1.476;2023-07-31T01:34:47;5.82;;;2.95;;
54835;SDS011;43486;43.574;1.476;2023-07-31T01:37:12;5.50;;;2.97;;
54835;SDS011;43486;43.574;1.476;2023-07-31T01:39:38;6.93;;;3.15;;
54835;SDS011;43486;43.574;1.476;2023-07-31T01:42:03;6.07;;;3.17;;
54835;SDS011;43486;43.574;1.476;2023-07-31T01:44:29;7.30;;;3.03;;
54835;SDS011;43486;43.574;1.476;2023-07-31T01:46:54;4.70;;;2.75;;
54835;SDS011;43486;43.574;1.476;2023-07-31T01:49:20;6.05;;;2.65;;
54835;SDS011;43486;43.574;1.476;2023-07-31T01:51:45;8.88;;;3.97;;
54835;SDS011;43486;43.574;1.476;2023-07-31T01:54:10;8.07;;;2.83;;
54835;SDS011;43486;43.574;1.476;2023-07-31T01:56:36;6.18;;;3.17;;
54835;SDS011;43486;43.574;1.476;2023-07-31T01:59:01;9.02;;;3.08;;
54835;SDS011;43486;43.574;1.476;2023-07-31T02:01:27;6.63;;;3.38;;
54835;SDS011;43486;43.574;1.476;2023-07-31T02:03:52;5.45;;;2.95;;
54835;SDS011;43486;43.574;1.476;2023-07-31T02:06:17;8.38;;;3.08;;
54835;SDS011;43486;43.574;1.476;2023-07-31T02:08:43;5.82;;;2.78;;
54835;SDS011;43486;43.574;1.476;2023-07-31T02:11:08;4.90;;;2.63;;
54835;SDS011;43486;43.574;1.476;2023-07-31T02:13:34;7.20;;;4.28;;
54835;SDS011;43486;43.574;1.476;2023-07-31T02:15:59;5.40;;;3.22;;
54835;SDS011;43486;43.574;1.476;2023-07-31T02:18:25;7.18;;;3.88;;
54835;SDS011;43486;43.574;1.476;2023-07-31T02:20:50;7.55;;;3.08;;
54835;SDS011;43486;43.574;1.476;2023-07-31T02:23:16;8.15;;;3.22;;
54835;SDS011;43486;43.574;1.476;2023-07-31T02:25:45;9.50;;;2.97;;
54835;SDS011;43486;43.574;1.476;2023-07-31T02:28:10;4.93;;;3.00;;
54835;SDS011;43486;43.574;1.476;2023-07-31T02:30:36;5.90;;;3.00;;
54835;SDS011;43486;43.574;1.476;2023-07-31T02:33:01;7.80;;;3.35;;
54835;SDS011;43486;43.574;1.476;2023-07-31T02:35:27;8.02;;;2.70;;
54835;SDS011;43486;43.574;1.476;2023-07-31T02:37:52;5.25;;;2.42;;
54835;SDS011;43486;43.574;1.476;2023-07-31T02:40:18;6.65;;;3.13;;
54835;SDS011;43486;43.574;1.476;2023-07-31T02:42:43;9.93;;;3.05;;
54835;SDS011;43486;43.574;1.476;2023-07-31T02:45:09;8.88;;;3.33;;
54835;SDS011;43486;43.574;1.476;2023-07-31T02:47:34;7.22;;;2.67;;
54835;SDS011;43486;43.574;1.476;2023-07-31T02:50:00;6.30;;;3.63;;
54835;SDS011;43486;43.574;1.476;2023-07-31T02:52:26;6.60;;;2.97;;
54835;SDS011;43486;43.574;1.476;2023-07-31T02:54:52;5.43;;;2.47;;
54835;SDS011;43486;43.574;1.476;2023-07-31T02:57:17;5.82;;;3.10;;
54835;SDS011;43486;43.574;1.476;2023-07-31T02:59:43;7.18;;;3.10;;
54835;SDS011;43486;43.574;1.476;2023-07-31T03:02:08;7.50;;;3.05;;
54835;SDS011;43486;43.574;1.476;2023-07-31T03:04:33;7.22;;;3.15;;
54835;SDS011;43486;43.574;1.476;2023-07-31T03:06:59;7.07;;;3.90;;
54835;SDS011;43486;43.574;1.476;2023-07-31T03:09:24;6.80;;;2.78;;
54835;SDS011;43486;43.574;1.476;2023-07-31T03:11:49;7.93;;;3.58;;
54835;SDS011;43486;43.574;1.476;2023-07-31T03:14:15;7.20;;;3.63;;
54835;SDS011;43486;43.574;1.476;2023-07-31T03:16:40;10.13;;;5.05;;
54835;SDS011;43486;43.574;1.476;2023-07-31T03:19:06;9.70;;;4.50;;
54835;SDS011;43486;43.574;1.476;2023-07-31T03:21:31;12.82;;;4.05;;
54835;SDS011;43486;43.574;1.476;2023-07-31T03:23:56;8.15;;;3.80;;
54835;SDS011;43486;43.574;1.476;2023-07-31T03:26:22;6.60;;;3.72;;
54835;SDS011;43486;43.574;1.476;2023-07-31T03:28:47;9.45;;;3.85;;
54835;SDS011;43486;43.574;1.476;2023-07-31T03:31:14;11.88;;;4.50;;
54835;SDS011;43486;43.574;1.476;2023-07-31T03:33:39;10.43;;;3.97;;
54835;SDS011;43486;43.574;1.476;2023-07-31T03:36:05;11.20;;;5.03;;
54835;SDS011;43486;43.574;1.476;2023-07-31T03:38:31;10.13;;;4.03;;
54835;SDS011;43486;43.574;1.476;2023-07-31T03:40:56;8.35;;;3.92;;
54835;SDS011;43486;43.574;1.476;2023-07-31T03:43:23;9.27;;;3.90;;
54835;SDS011;43486;43.574;1.476;2023-07-31T03:45:49;11.50;;;5.22;;
54835;SDS011;43486;43.574;1.476;2023-07-31T03:48:15;8.32;;;3.65;;
54835;SDS011;43486;43.574;1.476;2023-07-31T03:50:41;9.88;;;5.45;;
54835;SDS011;43486;43.574;1.476;2023-07-31T03:53:06;8.95;;;4.78;;
54835;SDS011;43486;43.574;1.476;2023-07-31T03:55:32;12.48;;;4.75;;
54835;SDS011;43486;43.574;1.476;2023-07-31T03:57:57;7.20;;;4.38;;
54835;SDS011;43486;43.574;1.476;2023-07-31T04:00:23;8.05;;;3.92;;
54835;SDS011;43486;43.574;1.476;2023-07-31T04:02:48;7.88;;;4.95;;
54835;SDS011;43486;43.574;1.476;2023-07-31T04:05:13;8.07;;;4.43;;
54835;SDS011;43486;43.574;1.476;2023-07-31T04:07:39;11.70;;;5.45;;
54835;SDS011;43486;43.574;1.476;2023-07-31T04:10:04;7.68;;;3.88;;
54835;SDS011;43486;43.574;1.476;2023-07-31T04:12:30;13.95;;;5.85;;
54835;SDS011;43486;43.574;1.476;2023-07-31T04:14:55;10.02;;;4.95;;
54835;SDS011;43486;43.574;1.476;2023-07-31T04:17:20;11.23;;;5.35;;
54835;SDS011;43486;43.574;1.476;2023-07-31T04:19:46;10.73;;;5.35;;
54835;SDS011;43486;43.574;1.476;2023-07-31T04:22:11;13.63;;;5.18;;
54835;SDS011;43486;43.574;1.476;2023-07-31T04:24:36;11.80;;;6.25;;
54835;SDS011;43486;43.574;1.476;2023-07-31T04:27:02;8.07;;;4.05;;
54835;SDS011;43486;43.574;1.476;2023-07-31T04:29:28;10.35;;;4.50;;
54835;SDS011;43486;43.574;1.476;2023-07-31T04:31:53;10.75;;;5.03;;
54835;SDS011;43486;43.574;1.476;2023-07-31T04:34:18;8.48;;;4.72;;
54835;SDS011;43486;43.574;1.476;2023-07-31T04:36:44;11.23;;;5.10;;
54835;SDS011;43486;43.574;1.476;2023-07-31T04:39:09;13.52;;;5.40;;
54835;SDS011;43486;43.574;1.476;2023-07-31T04:41:34;11.95;;;5.70;;
54835;SDS011;43486;43.574;1.476;2023-07-31T04:44:00;7.20;;;4.10;;
54835;SDS011;43486;43.574;1.476;2023-07-31T04:46:26;10.40;;;5.10;;
54835;SDS011;43486;43.574;1.476;2023-07-31T04:48:51;8.95;;;5.03;;
54835;SDS011;43486;43.574;1.476;2023-07-31T04:51:17;8.57;;;3.88;;
54835;SDS011;43486;43.574;1.476;2023-07-31T04:53:42;11.05;;;5.53;;
54835;SDS011;43486;43.574;1.476;2023-07-31T04:56:07;10.38;;;4.78;;
54835;SDS011;43486;43.574;1.476;2023-07-31T04:58:33;9.13;;;5.68;;
54835;SDS011;43486;43.574;1.476;2023-07-31T05:00:58;13.05;;;5.30;;
54835;SDS011;43486;43.574;1.476;2023-07-31T05:03:23;15.00;;;5.80;;
54835;SDS011;43486;43.574;1.476;2023-07-31T05:05:49;10.10;;;4.22;;
54835;SDS011;43486;43.574;1.476;2023-07-31T05:08:15;6.47;;;3.60;;
54835;SDS011;43486;43.574;1.476;2023-07-31T05:10:42;11.38;;;5.30;;
54835;SDS011;43486;43.574;1.476;2023-07-31T05:13:08;9.45;;;5.00;;
54835;SDS011;43486;43.574;1.476;2023-07-31T05:15:33;9.30;;;4.95;;
54835;SDS011;43486;43.574;1.476;2023-07-31T05:17:58;7.13;;;3.90;;
54835;SDS011;43486;43.574;1.476;2023-07-31T05:20:24;7.13;;;4.43;;
54835;SDS011;43486;43.574;1.476;2023-07-31T05:22:50;11.93;;;5.18;;
54835;SDS011;43486;43.574;1.476;2023-07-31T05:25:16;8.93;;;4.18;;
54835;SDS011;43486;43.574;1.476;2023-07-31T05:27:41;7.88;;;3.83;;
54835;SDS011;43486;43.574;1.476;2023-07-31T05:30:07;7.78;;;4.07;;
54835;SDS011;43486;43.574;1.476;2023-07-31T05:32:32;11.68;;;4.88;;
54835;SDS011;43486;43.574;1.476;2023-07-31T05:34:58;8.70;;;4.13;;
54835;SDS011;43486;43.574;1.476;2023-07-31T05:37:23;9.35;;;4.50;;
54835;SDS011;43486;43.574;1.476;2023-07-31T05:39:49;11.93;;;4.72;;
54835;SDS011;43486;43.574;1.476;2023-07-31T05:42:14;8.10;;;4.30;;
54835;SDS011;43486;43.574;1.476;2023-07-31T05:44:40;8.00;;;3.13;;
54835;SDS011;43486;43.574;1.476;2023-07-31T05:47:05;10.32;;;5.93;;
54835;SDS011;43486;43.574;1.476;2023-07-31T05:49:31;8.18;;;3.35;;
54835;SDS011;43486;43.574;1.476;2023-07-31T05:51:56;10.48;;;3.95;;
54835;SDS011;43486;43.574;1.476;2023-07-31T05:54:21;9.32;;;4.28;;
54835;SDS011;43486;43.574;1.476;2023-07-31T05:56:47;16.55;;;4.55;;
54835;SDS011;43486;43.574;1.476;2023-07-31T05:59:12;8.20;;;3.60;;
54835;SDS011;43486;43.574;1.476;2023-07-31T06:01:38;9.60;;;4.80;;
54835;SDS011;43486;43.574;1.476;2023-07-31T06:04:04;6.68;;;3.30;;
54835;SDS011;43486;43.574;1.476;2023-07-31T06:06:29;10.02;;;4.28;;
54835;SDS011;43486;43.574;1.476;2023-07-31T06:08:54;8.48;;;3.80;;
54835;SDS011;43486;43.574;1.476;2023-07-31T06:11:20;7.20;;;3.85;;
54835;SDS011;43486;43.574;1.476;2023-07-31T06:13:46;9.65;;;3.78;;
54835;SDS011;43486;43.574;1.476;2023-07-31T06:16:14;8.52;;;3.80;;
54835;SDS011;43486;43.574;1.476;2023-07-31T06:18:40;9.25;;;3.63;;
54835;SDS011;43486;43.574;1.476;2023-07-31T06:21:06;7.25;;;3.97;;
54835;SDS011;43486;43.574;1.476;2023-07-31T06:23:31;10.68;;;3.10;;
54835;SDS011;43486;43.574;1.476;2023-07-31T06:25:57;9.15;;;4.35;;
54835;SDS011;43486;43.574;1.476;2023-07-31T06:28:26;7.10;;;3.70;;
54835;SDS011;43486;43.574;1.476;2023-07-31T06:30:55;12.43;;;4.70;;
54835;SDS011;43486;43.574;1.476;2023-07-31T06:33:21;11.02;;;4.72;;
54835;SDS011;43486;43.574;1.476;2023-07-31T06:35:46;9.05;;;4.82;;
54835;SDS011;43486;43.574;1.476;2023-07-31T06:38:11;9.75;;;3.25;;
54835;SDS011;43486;43.574;1.476;2023-07-31T06:40:37;7.90;;;3.67;;
54835;SDS011;43486;43.574;1.476;2023-07-31T06:43:02;9.52;;;3.35;;
54835;SDS011;43486;43.574;1.476;2023-07-31T06:45:33;8.05;;;3.10;;
54835;SDS011;43486;43.574;1.476;2023-07-31T06:48:00;7.93;;;3.75;;
54835;SDS011;43486;43.574;1.476;2023-07-31T06:50:26;11.30;;;3.78;;
54835;SDS011;43486;43.574;1.476;2023-07-31T06:52:53;10.07;;;4.28;;
54835;SDS011;43486;43.574;1.476;2023-07-31T06:55:19;9.52;;;3.65;;
54835;SDS011;43486;43.574;1.476;2023-07-31T06:57:46;6.88;;;3.30;;
54835;SDS011;43486;43.574;1.476;2023-07-31T07:00:12;7.93;;;3.75;;
54835;SDS011;43486;43.574;1.476;2023-07-31T07:02:38;5.07;;;2.92;;
54835;SDS011;43486;43.574;1.476;2023-07-31T07:05:03;7.30;;;3.63;;
54835;SDS011;43486;43.574;1.476;2023-07-31T07:07:29;6.15;;;3.60;;
54835;SDS011;43486;43.574;1.476;2023-07-31T07:09:54;7.00;;;3.58;;
54835;SDS011;43486;43.574;1.476;2023-07-31T07:12:20;10.02;;;3.13;;
54835;SDS011;43486;43.574;1.476;2023-07-31T07:14:45;8.13;;;3.22;;
54835;SDS011;43486;43.574;1.476;2023-07-31T07:17:13;9.40;;;3.78;;
54835;SDS011;43486;43.574;1.476;2023-07-31T07:19:40;8.80;;;4.63;;
54835;SDS011;43486;43.574;1.476;2023-07-31T07:22:06;7.85;;;3.47;;
54835;SDS011;43486;43.574;1.476;2023-07-31T07:24:31;9.27;;;3.53;;
54835;SDS011;43486;43.574;1.476;2023-07-31T07:26:56;8.65;;;4.65;;
54835;SDS011;43486;43.574;1.476;2023-07-31T07:29:22;5.40;;;3.08;;
54835;SDS011;43486;43.574;1.476;2023-07-31T07:31:47;7.25;;;3.42;;
54835;SDS011;43486;43.574;1.476;2023-07-31T07:34:13;8.93;;;4.05;;
54835;SDS011;43486;43.574;1.476;2023-07-31T07:36:38;9.10;;;3.72;;
54835;SDS011;43486;43.574;1.476;2023-07-31T07:39:03;7.30;;;3.33;;
54835;SDS011;43486;43.574;1.476;2023-07-31T07:41:29;7.05;;;3.60;;
54835;SDS011;43486;43.574;1.476;2023-07-31T07:43:54;8.80;;;3.08;;
54835;SDS011;43486;43.574;1.476;2023-07-31T07:46:19;5.78;;;2.97;;
54835;SDS011;43486;43.574;1.476;2023-07-31T07:48:45;6.68;;;3.42;;
54835;SDS011;43486;43.574;1.476;2023-07-31T07:51:10;6.80;;;3.50;;
54835;SDS011;43486;43.574;1.476;2023-07-31T07:53:35;9.65;;;3.55;;
54835;SDS011;43486;43.574;1.476;2023-07-31T07:56:01;9.00;;;3.03;;
54835;SDS011;43486;43.574;1.476;2023-07-31T07:58:26;8.93;;;3.30;;
54835;SDS011;43486;43.574;1.476;2023-07-31T08:00:52;10.27;;;3.90;;
54835;SDS011;43486;43.574;1.476;2023-07-31T08:03:17;10.23;;;3.05;;
54835;SDS011;43486;43.574;1.476;2023-07-31T08:05:43;8.90;;;5.20;;
54835;SDS011;43486;43.574;1.476;2023-07-31T08:08:13;9.07;;;3.67;;
54835;SDS011;43486;43.574;1.476;2023-07-31T08:10:42;8.23;;;3.22;;
54835;SDS011;43486;43.574;1.476;2023-07-31T08:13:09;6.05;;;2.90;;
54835;SDS011;43486;43.574;1.476;2023-07-31T08:15:35;8.25;;;3.45;;
54835;SDS011;43486;43.574;1.476;2023-07-31T08:18:00;7.78;;;3.80;;
54835;SDS011;43486;43.574;1.476;2023-07-31T08:20:26;8.68;;;3.63;;
54835;SDS011;43486;43.574;1.476;2023-07-31T08:22:52;7.50;;;3.38;;
54835;SDS011;43486;43.574;1.476;2023-07-31T08:25:18;13.85;;;3.25;;
54835;SDS011;43486;43.574;1.476;2023-07-31T08:27:43;7.80;;;3.08;;
54835;SDS011;43486;43.574;1.476;2023-07-31T08:30:09;5.57;;;2.88;;
54835;SDS011;43486;43.574;1.476;2023-07-31T08:32:36;11.68;;;3.60;;
54835;SDS011;43486;43.574;1.476;2023-07-31T08:35:02;9.20;;;3.85;;
54835;SDS011;43486;43.574;1.476;2023-07-31T08:37:27;6.85;;;2.63;;
54835;SDS011;43486;43.574;1.476;2023-07-31T08:39:53;5.18;;;2.40;;
54835;SDS011;43486;43.574;1.476;2023-07-31T08:42:19;7.80;;;3.10;;
54835;SDS011;43486;43.574;1.476;2023-07-31T08:44:45;10.02;;;3.30;;
54835;SDS011;43486;43.574;1.476;2023-07-31T08:47:11;8.38;;;2.97;;
54835;SDS011;43486;43.574;1.476;2023-07-31T08:49:37;5.57;;;2.58;;
54835;SDS011;43486;43.574;1.476;2023-07-31T08:52:03;7.03;;;2.28;;
54835;SDS011;43486;43.574;1.476;2023-07-31T08:54:29;8.68;;;3.00;;
54835;SDS011;43486;43.574;1.476;2023-07-31T08:56:56;7.47;;;3.15;;
54835;SDS011;43486;43.574;1.476;2023-07-31T08:59:21;8.60;;;4.00;;
54835;SDS011;43486;43.574;1.476;2023-07-31T09:01:49;9.52;;;3.53;;
54835;SDS011;43486;43.574;1.476;2023-07-31T09:04:16;7.72;;;3.55;;
54835;SDS011;43486;43.574;1.476;2023-07-31T09:06:43;7.13;;;2.95;;
54835;SDS011;43486;43.574;1.476;2023-07-31T09:09:09;5.78;;;3.05;;
54835;SDS011;43486;43.574;1.476;2023-07-31T09:11:35;9.10;;;3.85;;
54835;SDS011;43486;43.574;1.476;2023-07-31T09:14:00;6.70;;;2.83;;
54835;SDS011;43486;43.574;1.476;2023-07-31T09:16:28;8.02;;;2.90;;
54835;SDS011;43486;43.574;1.476;2023-07-31T09:18:57;6.43;;;3.13;;
54835;SDS011;43486;43.574;1.476;2023-07-31T09:21:23;8.05;;;2.65;;
54835;SDS011;43486;43.574;1.476;2023-07-31T09:23:50;10.77;;;2.78;;
54835;SDS011;43486;43.574;1.476;2023-07-31T09:26:34;9.50;;;2.97;;
54835;SDS011;43486;43.574;1.476;2023-07-31T09:29:04;8.95;;;3.38;;
54835;SDS011;43486;43.574;1.476;2023-07-31T09:31:39;7.35;;;3.30;;
54835;SDS011;43486;43.574;1.476;2023-07-31T09:34:08;6.45;;;3.53;;
54835;SDS011;43486;43.574;1.476;2023-07-31T09:36:42;11.75;;;3.42;;
54835;SDS011;43486;43.574;1.476;2023-07-31T09:39:10;8.10;;;2.80;;
54835;SDS011;43486;43.574;1.476;2023-07-31T09:41:41;7.68;;;3.30;;
54835;SDS011;43486;43.574;1.476;2023-07-31T09:44:09;6.65;;;2.63;;
54835;SDS011;43486;43.574;1.476;2023-07-31T09:46:35;5.97;;;2.70;;
54835;SDS011;43486;43.574;1.476;2023-07-31T09:49:11;6.72;;;3.03;;
54835;SDS011;43486;43.574;1.476;2023-07-31T09:51:38;10.23;;;3.05;;
54835;SDS011;43486;43.574;1.476;2023-07-31T09:54:14;9.02;;;3.03;;
54835;SDS011;43486;43.574;1.476;2023-07-31T09:59:10;10.30;;;3.47;;
54835;SDS011;43486;43.574;1.476;2023-07-31T10:01:37;5.63;;;2.20;;
54835;SDS011;43486;43.574;1.476;2023-07-31T10:04:03;7.60;;;2.70;;
54835;SDS011;43486;43.574;1.476;2023-07-31T10:06:30;5.30;;;2.40;;
54835;SDS011;43486;43.574;1.476;2023-07-31T10:08:56;6.47;;;2.67;;
54835;SDS011;43486;43.574;1.476;2023-07-31T10:11:22;6.55;;;2.40;;
54835;SDS011;43486;43.574;1.476;2023-07-31T10:13:49;5.43;;;2.28;;
54835;SDS011;43486;43.574;1.476;2023-07-31T10:16:15;5.28;;;2.65;;
54835;SDS011;43486;43.574;1.476;2023-07-31T10:18:41;7.93;;;2.58;;
54835;SDS011;43486;43.574;1.476;2023-07-31T10:21:08;9.23;;;3.20;;
54835;SDS011;43486;43.574;1.476;2023-07-31T10:23:34;8.93;;;2.65;;
54835;SDS011;43486;43.574;1.476;2023-07-31T10:26:00;14.43;;;2.55;;
54835;SDS011;43486;43.574;1.476;2023-07-31T10:28:26;8.60;;;2.78;;
54835;SDS011;43486;43.574;1.476;2023-07-31T10:30:53;8.93;;;2.42;;
54835;SDS011;43486;43.574;1.476;2023-07-31T10:33:19;5.50;;;3.00;;
54835;SDS011;43486;43.574;1.476;2023-07-31T10:35:46;7.28;;;2.15;;
54835;SDS011;43486;43.574;1.476;2023-07-31T10:38:12;7.18;;;3.05;;
54835;SDS011;43486;43.574;1.476;2023-07-31T10:40:38;5.30;;;2.20;;
54835;SDS011;43486;43.574;1.476;2023-07-31T10:43:04;4.47;;;2.42;;
54835;SDS011;43486;43.574;1.476;2023-07-31T10:45:34;5.65;;;2.70;;
54835;SDS011;43486;43.574;1.476;2023-07-31T10:48:17;5.25;;;2.88;;
54835;SDS011;43486;43.574;1.476;2023-07-31T10:50:49;6.25;;;2.47;;
54835;SDS011;43486;43.574;1.476;2023-07-31T10:53:33;6.00;;;2.40;;
54835;SDS011;43486;43.574;1.476;2023-07-31T10:55:59;4.57;;;2.22;;
54835;SDS011;43486;43.574;1.476;2023-07-31T10:58:25;6.38;;;3.30;;
54835;SDS011;43486;43.574;1.476;2023-07-31T11:00:51;4.53;;;2.13;;
54835;SDS011;43486;43.574;1.476;2023-07-31T11:03:24;8.98;;;2.38;;
54835;SDS011;43486;43.574;1.476;2023-07-31T11:08:29;5.10;;;1.92;;
54835;SDS011;43486;43.574;1.476;2023-07-31T11:13:49;6.55;;;2.67;;
54835;SDS011;43486;43.574;1.476;2023-07-31T11:16:23;8.00;;;2.15;;
54835;SDS011;43486;43.574;1.476;2023-07-31T11:18:49;3.40;;;1.98;;
54835;SDS011;43486;43.574;1.476;2023-07-31T11:21:20;3.88;;;2.10;;
54835;SDS011;43486;43.574;1.476;2023-07-31T11:23:47;8.35;;;2.58;;
54835;SDS011;43486;43.574;1.476;2023-07-31T11:26:14;6.68;;;2.92;;
54835;SDS011;43486;43.574;1.476;2023-07-31T11:28:39;6.53;;;2.60;;
54835;SDS011;43486;43.574;1.476;2023-07-31T11:31:08;6.50;;;2.83;;
54835;SDS011;43486;43.574;1.476;2023-07-31T11:33:34;5.57;;;2.65;;
54835;SDS011;43486;43.574;1.476;2023-07-31T11:35:59;3.13;;;1.40;;
54835;SDS011;43486;43.574;1.476;2023-07-31T11:38:31;7.15;;;2.28;;
54835;SDS011;43486;43.574;1.476;2023-07-31T11:41:02;7.63;;;2.60;;
54835;SDS011;43486;43.574;1.476;2023-07-31T11:43:28;3.90;;;1.85;;
54835;SDS011;43486;43.574;1.476;2023-07-31T11:45:56;6.00;;;2.03;;
54835;SDS011;43486;43.574;1.476;2023-07-31T11:48:26;5.25;;;2.10;;
54835;SDS011;43486;43.574;1.476;2023-07-31T11:51:14;5.30;;;1.92;;
54835;SDS011;43486;43.574;1.476;2023-07-31T11:53:51;6.63;;;2.22;;
54835;SDS011;43486;43.574;1.476;2023-07-31T11:56:21;5.55;;;2.03;;
54835;SDS011;43486;43.574;1.476;2023-07-31T11:58:53;5.68;;;2.70;;
54835;SDS011;43486;43.574;1.476;2023-07-31T12:01:20;8.82;;;2.95;;
54835;SDS011;43486;43.574;1.476;2023-07-31T12:03:47;7.68;;;2.47;;
54835;SDS011;43486;43.574;1.476;2023-07-31T12:06:12;8.75;;;2.58;;
54835;SDS011;43486;43.574;1.476;2023-07-31T12:08:38;5.88;;;2.55;;
54835;SDS011;43486;43.574;1.476;2023-07-31T12:11:04;4.22;;;1.95;;
54835;SDS011;43486;43.574;1.476;2023-07-31T12:13:30;3.85;;;2.28;;
54835;SDS011;43486;43.574;1.476;2023-07-31T12:15:57;5.57;;;2.75;;
54835;SDS011;43486;43.574;1.476;2023-07-31T12:18:23;3.50;;;1.80;;
54835;SDS011;43486;43.574;1.476;2023-07-31T12:20:54;5.40;;;2.17;;
54835;SDS011;43486;43.574;1.476;2023-07-31T12:23:21;4.90;;;2.40;;
54835;SDS011;43486;43.574;1.476;2023-07-31T12:26:07;5.65;;;2.55;;
54835;SDS011;43486;43.574;1.476;2023-07-31T12:31:03;5.60;;;2.13;;
54835;SDS011;43486;43.574;1.476;2023-07-31T12:33:32;4.35;;;2.13;;
54835;SDS011;43486;43.574;1.476;2023-07-31T12:36:00;3.35;;;2.03;;
54835;SDS011;43486;43.574;1.476;2023-07-31T12:38:26;6.05;;;2.60;;
54835;SDS011;43486;43.574;1.476;2023-07-31T12:40:52;4.25;;;1.70;;
54835;SDS011;43486;43.574;1.476;2023-07-31T12:43:17;3.42;;;1.52;;
54835;SDS011;43486;43.574;1.476;2023-07-31T12:45:42;5.63;;;2.33;;
54835;SDS011;43486;43.574;1.476;2023-07-31T12:48:08;5.55;;;2.42;;
54835;SDS011;43486;43.574;1.476;2023-07-31T12:50:33;4.88;;;2.10;;
54835;SDS011;43486;43.574;1.476;2023-07-31T12:53:01;6.65;;;2.20;;
54835;SDS011;43486;43.574;1.476;2023-07-31T12:55:28;6.50;;;3.15;;
54835;SDS011;43486;43.574;1.476;2023-07-31T12:57:54;4.47;;;2.05;;
54835;SDS011;43486;43.574;1.476;2023-07-31T13:00:19;3.92;;;1.60;;
54835;SDS011;43486;43.574;1.476;2023-07-31T13:02:44;4.60;;;2.28;;
54835;SDS011;43486;43.574;1.476;2023-07-31T13:05:10;7.07;;;3.00;;
54835;SDS011;43486;43.574;1.476;2023-07-31T13:07:35;7.43;;;1.80;;
54835;SDS011;43486;43.574;1.476;2023-07-31T13:10:01;5.57;;;2.67;;
54835;SDS011;43486;43.574;1.476;2023-07-31T13:12:26;6.43;;;2.05;;
54835;SDS011;43486;43.574;1.476;2023-07-31T13:14:52;3.55;;;1.95;;
54835;SDS011;43486;43.574;1.476;2023-07-31T13:17:18;5.95;;;2.83;;
54835;SDS011;43486;43.574;1.476;2023-07-31T13:19:44;7.82;;;2.15;;
54835;SDS011;43486;43.574;1.476;2023-07-31T13:22:09;4.00;;;1.80;;
54835;SDS011;43486;43.574;1.476;2023-07-31T13:24:35;6.38;;;2.33;;
54835;SDS011;43486;43.574;1.476;2023-07-31T13:27:00;6.63;;;2.20;;
54835;SDS011;43486;43.574;1.476;2023-07-31T13:29:25;6.97;;;2.60;;
54835;SDS011;43486;43.574;1.476;2023-07-31T13:31:52;5.18;;;1.95;;
54835;SDS011;43486;43.574;1.476;2023-07-31T13:34:18;8.02;;;2.10;;
54835;SDS011;43486;43.574;1.476;2023-07-31T13:36:43;6.00;;;2.28;;
54835;SDS011;43486;43.574;1.476;2023-07-31T13:39:08;5.40;;;1.80;;
54835;SDS011;43486;43.574;1.476;2023-07-31T13:41:34;5.25;;;2.78;;
54835;SDS011;43486;43.574;1.476;2023-07-31T13:43:59;5.82;;;2.88;;
54835;SDS011;43486;43.574;1.476;2023-07-31T13:46:25;7.35;;;2.78;;
54835;SDS011;43486;43.574;1.476;2023-07-31T13:48:50;4.88;;;2.15;;
54835;SDS011;43486;43.574;1.476;2023-07-31T13:51:16;8.45;;;2.28;;
54835;SDS011;43486;43.574;1.476;2023-07-31T13:53:41;7.30;;;2.00;;
54835;SDS011;43486;43.574;1.476;2023-07-31T13:56:07;4.50;;;2.10;;
54835;SDS011;43486;43.574;1.476;2023-07-31T13:58:33;5.93;;;2.25;;
54835;SDS011;43486;43.574;1.476;2023-07-31T14:00:58;5.15;;;2.05;;
54835;SDS011;43486;43.574;1.476;2023-07-31T14:03:24;7.00;;;2.03;;
54835;SDS011;43486;43.574;1.476;2023-07-31T14:05:49;9.38;;;2.70;;
54835;SDS011;43486;43.574;1.476;2023-07-31T14:08:15;6.53;;;2.88;;
54835;SDS011;43486;43.574;1.476;2023-07-31T14:10:40;4.35;;;1.73;;
54835;SDS011;43486;43.574;1.476;2023-07-31T14:13:06;5.38;;;1.98;;
54835;SDS011;43486;43.574;1.476;2023-07-31T14:15:31;6.30;;;2.70;;
54835;SDS011;43486;43.574;1.476;2023-07-31T14:17:57;6.53;;;2.20;;
54835;SDS011;43486;43.574;1.476;2023-07-31T14:20:22;7.13;;;3.15;;
54835;SDS011;43486;43.574;1.476;2023-07-31T14:22:48;5.20;;;2.75;;
54835;SDS011;43486;43.574;1.476;2023-07-31T14:25:13;3.65;;;2.08;;
54835;SDS011;43486;43.574;1.476;2023-07-31T14:27:38;6.65;;;2.83;;
54835;SDS011;43486;43.574;1.476;2023-07-31T14:30:04;6.35;;;2.58;;
54835;SDS011;43486;43.574;1.476;2023-07-31T14:32:30;7.65;;;2.47;;
54835;SDS011;43486;43.574;1.476;2023-07-31T14:34:55;4.65;;;2.33;;
54835;SDS011;43486;43.574;1.476;2023-07-31T14:37:21;4.85;;;2.25;;
54835;SDS011;43486;43.574;1.476;2023-07-31T14:39:46;5.03;;;2.38;;
54835;SDS011;43486;43.574;1.476;2023-07-31T14:42:11;6.65;;;3.03;;
54835;SDS011;43486;43.574;1.476;2023-07-31T14:44:37;4.72;;;2.13;;
54835;SDS011;43486;43.574;1.476;2023-07-31T14:47:03;5.20;;;2.10;;
54835;SDS011;43486;43.574;1.476;2023-07-31T14:49:28;6.07;;;2.85;;
54835;SDS011;43486;43.574;1.476;2023-07-31T14:51:54;5.80;;;2.63;;
54835;SDS011;43486;43.574;1.476;2023-07-31T14:54:19;4.18;;;1.70;;
54835;SDS011;43486;43.574;1.476;2023-07-31T14:56:45;4.15;;;2.92;;
54835;SDS011;43486;43.574;1.476;2023-07-31T14:59:10;4.85;;;2.33;;
54835;SDS011;43486;43.574;1.476;2023-07-31T15:01:36;5.28;;;2.15;;